Time;durP1;ratioP1;P1;durP2;ratioP2;P2;SDS_P1;SDS_P2;PMS_P1;PMS_P2;Temp;Humidity;BMP_temperature;BMP_pressure;BME280_temperature;BME280_humidity;BME280_pressure;Samples;Min_cycle;Max_cycle;Signal;HPM_P1;HPM_P2
2022/08/09 00:00:02;;;;;;;2.55;1.38;;;;;;;;;;5002843;28;20037;-61
2022/08/09 00:02:28;;;;;;;1.50;1.40;;;;;;;;;;5002630;28;20106;-61
2022/08/09 00:04:55;;;;;;;1.47;1.20;;;;;;;;;;5005906;28;20459;-61
2022/08/09 00:07:20;;;;;;;1.40;1.30;;;;;;;;;;4999728;28;20048;-60
2022/08/09 00:09:46;;;;;;;1.80;1.40;;;;;;;;;;4999626;28;20439;-59
2022/08/09 00:12:11;;;;;;;1.60;1.50;;;;;;;;;;5004619;28;20075;-59
2022/08/09 00:14:36;;;;;;;1.13;1.13;;;;;;;;;;5006041;28;20015;-60
2022/08/09 00:17:02;;;;;;;1.55;1.45;;;;;;;;;;5012527;28;20356;-61
2022/08/09 00:19:27;;;;;;;2.20;1.30;;;;;;;;;;5001099;28;20026;-60
2022/08/09 00:21:52;;;;;;;1.58;1.40;;;;;;;;;;5013253;28;20026;-60
2022/08/09 00:24:18;;;;;;;1.20;1.10;;;;;;;;;;5004586;28;20241;-60
2022/08/09 00:26:44;;;;;;;1.92;1.08;;;;;;;;;;5001737;28;20280;-58
2022/08/09 00:29:09;;;;;;;1.88;1.20;;;;;;;;;;5004155;28;20021;-60
2022/08/09 00:31:34;;;;;;;2.20;1.60;;;;;;;;;;5003655;28;20026;-58
2022/08/09 00:33:59;;;;;;;1.48;1.38;;;;;;;;;;5007416;28;20253;-60
2022/08/09 00:36:27;;;;;;;1.40;1.40;;;;;;;;;;5001919;28;20037;-59
2022/08/09 00:38:52;;;;;;;2.47;1.55;;;;;;;;;;5003975;28;20748;-59
2022/08/09 00:41:21;;;;;;;1.75;1.23;;;;;;;;;;5001815;28;20013;-61
2022/08/09 00:43:46;;;;;;;1.15;1.13;;;;;;;;;;5003070;28;20033;-55
2022/08/09 00:46:11;;;;;;;3.73;1.30;;;;;;;;;;5003832;28;20030;-59
2022/08/09 00:48:37;;;;;;;1.45;1.35;;;;;;;;;;5008047;28;20559;-60
2022/08/09 00:51:03;;;;;;;2.33;1.20;;;;;;;;;;5005850;28;20022;-58
2022/08/09 00:53:31;;;;;;;1.50;1.40;;;;;;;;;;5004593;28;20300;-60
2022/08/09 00:55:57;;;;;;;1.20;1.10;;;;;;;;;;5000956;28;20019;-60
2022/08/09 00:58:24;;;;;;;4.35;1.42;;;;;;;;;;5004370;28;20023;-61
2022/08/09 01:00:51;;;;;;;1.40;1.30;;;;;;;;;;5002486;28;20026;-60
2022/08/09 01:03:28;;;;;;;2.00;1.38;;;;;;;;;;5001517;28;20022;-61
2022/08/09 01:06:03;;;;;;;1.05;1.00;;;;;;;;;;4997709;28;20118;-58
2022/08/09 01:08:29;;;;;;;1.42;1.30;;;;;;;;;;5005255;28;20006;-61
2022/08/09 01:11:00;;;;;;;1.73;1.40;;;;;;;;;;5001282;28;20458;-58
2022/08/09 01:13:35;;;;;;;1.35;1.25;;;;;;;;;;5004556;28;20095;-60
2022/08/09 01:16:02;;;;;;;1.55;1.40;;;;;;;;;;5002451;28;20014;-54
2022/08/09 01:18:29;;;;;;;1.30;1.15;;;;;;;;;;5005349;28;20026;-57
2022/08/09 01:21:04;;;;;;;1.63;1.33;;;;;;;;;;5006897;28;20018;-59
2022/08/09 01:23:50;;;;;;;1.67;1.25;;;;;;;;;;5000637;28;20363;-56
2022/08/09 01:26:35;;;;;;;2.58;1.13;;;;;;;;;;5004078;28;20060;-58
2022/08/09 01:29:01;;;;;;;1.85;1.67;;;;;;;;;;5004111;28;20028;-59
2022/08/09 01:31:30;;;;;;;2.80;1.60;;;;;;;;;;5006150;28;20029;-57
2022/08/09 01:33:57;;;;;;;1.42;1.33;;;;;;;;;;5005703;28;20068;-56
2022/08/09 01:36:23;;;;;;;1.20;1.10;;;;;;;;;;5003038;28;20149;-57
2022/08/09 01:38:49;;;;;;;1.38;1.27;;;;;;;;;;5006000;28;20032;-58
2022/08/09 01:41:17;;;;;;;1.30;1.20;;;;;;;;;;5006016;28;20387;-59
2022/08/09 01:43:44;;;;;;;1.40;1.30;;;;;;;;;;5003675;28;20608;-57
2022/08/09 01:46:10;;;;;;;1.33;1.23;;;;;;;;;;5017767;28;20361;-58
2022/08/09 01:48:35;;;;;;;1.20;1.10;;;;;;;;;;5002686;28;20036;-57
2022/08/09 01:51:01;;;;;;;1.35;1.25;;;;;;;;;;5004569;28;20037;-58
2022/08/09 01:53:30;;;;;;;1.23;1.10;;;;;;;;;;5004923;28;20018;-58
2022/08/09 01:55:56;;;;;;;1.58;1.05;;;;;;;;;;5017386;28;20551;-57
2022/08/09 01:58:21;;;;;;;1.50;1.40;;;;;;;;;;5003455;28;20045;-54
2022/08/09 02:00:46;;;;;;;1.60;1.50;;;;;;;;;;5002827;28;20006;-57
2022/08/09 02:03:13;;;;;;;1.88;1.20;;;;;;;;;;5006989;28;20402;-60
2022/08/09 02:05:39;;;;;;;1.20;1.10;;;;;;;;;;5003352;28;20033;-59
2022/08/09 02:08:09;;;;;;;1.40;1.30;;;;;;;;;;4999740;28;20025;-61
2022/08/09 02:10:38;;;;;;;1.00;1.00;;;;;;;;;;5004917;28;20024;-61
2022/08/09 02:13:04;;;;;;;1.13;1.13;;;;;;;;;;5000045;28;20014;-59
2022/08/09 02:15:31;;;;;;;1.42;1.33;;;;;;;;;;4999204;28;20014;-59
2022/08/09 02:17:57;;;;;;;1.83;1.33;;;;;;;;;;5000793;28;20328;-58
2022/08/09 02:20:27;;;;;;;2.95;1.85;;;;;;;;;;4997959;28;20037;-61
2022/08/09 02:22:59;;;;;;;1.38;1.20;;;;;;;;;;5000755;28;20025;-61
2022/08/09 02:25:27;;;;;;;1.50;1.37;;;;;;;;;;5000138;28;20069;-58
2022/08/09 02:28:00;;;;;;;0.93;0.90;;;;;;;;;;4999261;28;20113;-60
2022/08/09 02:30:27;;;;;;;1.35;1.25;;;;;;;;;;4997411;28;20034;-61
2022/08/09 02:32:52;;;;;;;1.75;1.23;;;;;;;;;;4997068;28;20071;-60
2022/08/09 02:35:23;;;;;;;1.58;1.33;;;;;;;;;;4998350;28;20025;-60
2022/08/09 02:37:50;;;;;;;1.42;1.20;;;;;;;;;;5000585;28;20037;-62
2022/08/09 02:40:17;;;;;;;1.30;1.20;;;;;;;;;;5007238;28;20033;-58
2022/08/09 02:42:43;;;;;;;2.28;1.35;;;;;;;;;;5001008;28;20038;-58
2022/08/09 02:45:38;;;;;;;1.30;1.20;;;;;;;;;;5005306;28;20026;-60
2022/08/09 02:48:07;;;;;;;1.42;1.27;;;;;;;;;;5006904;28;20049;-60
2022/08/09 02:50:38;;;;;;;1.50;1.40;;;;;;;;;;4999217;28;20038;-60
2022/08/09 02:53:07;;;;;;;3.92;1.52;;;;;;;;;;4999123;28;20038;-61
2022/08/09 02:55:38;;;;;;;1.63;1.20;;;;;;;;;;4999514;28;20026;-54
2022/08/09 02:58:04;;;;;;;2.28;1.10;;;;;;;;;;4999995;28;20018;-58
2022/08/09 03:00:29;;;;;;;2.60;1.13;;;;;;;;;;5001339;28;20140;-60
2022/08/09 03:02:56;;;;;;;1.67;1.58;;;;;;;;;;5001937;28;20587;-61
2022/08/09 03:05:22;;;;;;;1.38;1.30;;;;;;;;;;4999758;28;20041;-60
2022/08/09 03:07:49;;;;;;;2.35;1.35;;;;;;;;;;5015793;28;20953;-59
2022/08/09 03:10:15;;;;;;;1.33;1.23;;;;;;;;;;5003060;28;20447;-54
2022/08/09 03:12:43;;;;;;;1.38;1.27;;;;;;;;;;4996222;28;20015;-61
2022/08/09 03:15:10;;;;;;;1.52;1.42;;;;;;;;;;4999716;28;20051;-60
2022/08/09 03:17:36;;;;;;;1.50;1.40;;;;;;;;;;5002153;28;20483;-58
2022/08/09 03:20:01;;;;;;;1.63;1.52;;;;;;;;;;5000466;28;20105;-61
2022/08/09 03:22:28;;;;;;;1.25;1.15;;;;;;;;;;4997910;28;20019;-58
2022/08/09 03:24:53;;;;;;;1.55;1.45;;;;;;;;;;4999569;28;20052;-59
2022/08/09 03:27:21;;;;;;;1.63;1.05;;;;;;;;;;5002716;28;20442;-58
2022/08/09 03:29:47;;;;;;;1.17;1.10;;;;;;;;;;5008518;28;20049;-59
2022/08/09 03:32:13;;;;;;;1.27;1.17;;;;;;;;;;5005430;28;20029;-59
2022/08/09 03:34:41;;;;;;;1.65;1.27;;;;;;;;;;5003902;28;20029;-60
2022/08/09 03:37:08;;;;;;;1.75;1.20;;;;;;;;;;5002148;28;20034;-59
2022/08/09 03:39:33;;;;;;;1.88;1.30;;;;;;;;;;5008704;28;20025;-57
2022/08/09 03:41:59;;;;;;;3.53;1.60;;;;;;;;;;5003415;28;20041;-58
2022/08/09 03:44:24;;;;;;;1.40;1.30;;;;;;;;;;5001825;28;20022;-60
2022/08/09 03:46:50;;;;;;;1.63;1.52;;;;;;;;;;5012917;28;20312;-61
2022/08/09 03:49:16;;;;;;;1.38;1.30;;;;;;;;;;5003776;28;20684;-61
2022/08/09 03:51:43;;;;;;;1.50;1.40;;;;;;;;;;5005742;28;20022;-58
2022/08/09 03:54:09;;;;;;;1.58;1.45;;;;;;;;;;5003772;28;20036;-60
2022/08/09 03:56:34;;;;;;;2.72;1.63;;;;;;;;;;5003508;28;20368;-59
2022/08/09 03:59:04;;;;;;;1.50;1.40;;;;;;;;;;5007092;28;20022;-60
2022/08/09 04:01:29;;;;;;;1.45;1.30;;;;;;;;;;5005140;28;20265;-61
2022/08/09 04:03:55;;;;;;;1.65;1.20;;;;;;;;;;5002073;28;20084;-60
2022/08/09 04:06:21;;;;;;;1.73;1.63;;;;;;;;;;5003358;28;20083;-60
2022/08/09 04:08:48;;;;;;;1.65;1.38;;;;;;;;;;5004157;28;20157;-59
2022/08/09 04:11:13;;;;;;;1.35;1.08;;;;;;;;;;5006289;28;20040;-60
2022/08/09 04:13:39;;;;;;;2.75;1.30;;;;;;;;;;5002074;28;20463;-60
2022/08/09 04:16:04;;;;;;;1.85;1.40;;;;;;;;;;5001815;28;20019;-59
2022/08/09 04:18:31;;;;;;;1.65;1.33;;;;;;;;;;4999826;28;20007;-61
2022/08/09 04:20:59;;;;;;;1.98;1.25;;;;;;;;;;5005506;28;20416;-60
2022/08/09 04:23:24;;;;;;;1.27;1.15;;;;;;;;;;5006534;28;20018;-61
2022/08/09 04:25:49;;;;;;;1.40;1.30;;;;;;;;;;5008470;28;20021;-59
2022/08/09 04:28:14;;;;;;;1.98;1.17;;;;;;;;;;5004609;28;20246;-60
2022/08/09 04:30:42;;;;;;;1.23;1.13;;;;;;;;;;5002629;28;20022;-57
2022/08/09 04:33:07;;;;;;;1.65;1.55;;;;;;;;;;5001798;28;20327;-60
2022/08/09 04:35:33;;;;;;;1.38;1.27;;;;;;;;;;4999606;28;20014;-57
2022/08/09 04:37:58;;;;;;;1.77;1.67;;;;;;;;;;5003692;28;20117;-60
2022/08/09 04:40:46;;;;;;;1.65;1.55;;;;;;;;;;4999200;28;20117;-58
2022/08/09 04:43:09;;;;;;;1.27;1.10;;;;;;;;;;5006253;28;20071;-57
2022/08/09 04:45:34;;;;;;;1.27;1.20;;;;;;;;;;5004744;28;20022;-57
2022/08/09 04:47:59;;;;;;;1.80;1.70;;;;;;;;;;5000659;28;20368;-59
2022/08/09 04:50:25;;;;;;;1.43;1.33;;;;;;;;;;5003537;28;20010;-61
2022/08/09 04:52:50;;;;;;;1.60;1.50;;;;;;;;;;5000482;28;20965;-61
2022/08/09 04:55:15;;;;;;;1.37;1.37;;;;;;;;;;5005153;28;20454;-59
2022/08/09 04:57:40;;;;;;;1.13;1.13;;;;;;;;;;4996711;28;20046;-64
2022/08/09 05:00:06;;;;;;;1.40;1.30;;;;;;;;;;5000311;28;20308;-65
2022/08/09 05:02:34;;;;;;;2.75;1.88;;;;;;;;;;5008680;28;20725;-63
2022/08/09 05:04:59;;;;;;;1.40;1.30;;;;;;;;;;5001908;28;20371;-66
2022/08/09 05:07:25;;;;;;;1.63;1.45;;;;;;;;;;5008128;28;20026;-64
2022/08/09 05:09:50;;;;;;;1.58;1.48;;;;;;;;;;5001930;28;20028;-66
2022/08/09 05:12:15;;;;;;;1.70;1.60;;;;;;;;;;5001538;28;20026;-66
2022/08/09 05:14:40;;;;;;;1.92;1.67;;;;;;;;;;5003877;28;20025;-67
2022/08/09 05:17:08;;;;;;;2.03;1.80;;;;;;;;;;4997622;28;20508;-65
2022/08/09 05:19:33;;;;;;;2.53;1.60;;;;;;;;;;5002684;28;20014;-65
2022/08/09 05:22:01;;;;;;;2.17;1.57;;;;;;;;;;5001555;28;20090;-64
2022/08/09 05:24:26;;;;;;;1.80;1.70;;;;;;;;;;5000394;28;20253;-66
2022/08/09 05:26:52;;;;;;;2.00;1.90;;;;;;;;;;5003012;28;20018;-63
2022/08/09 05:29:22;;;;;;;3.35;1.90;;;;;;;;;;5001660;28;20418;-65
2022/08/09 05:31:48;;;;;;;3.15;1.80;;;;;;;;;;4999311;28;20433;-63
2022/08/09 05:34:14;;;;;;;3.65;1.92;;;;;;;;;;5000155;28;20024;-66
2022/08/09 05:36:40;;;;;;;3.88;1.70;;;;;;;;;;5003760;28;20060;-66
2022/08/09 05:39:05;;;;;;;2.08;1.85;;;;;;;;;;5002727;28;20061;-62
2022/08/09 05:41:30;;;;;;;2.10;1.67;;;;;;;;;;4998393;28;20491;-63
2022/08/09 05:43:58;;;;;;;2.13;1.80;;;;;;;;;;5003845;28;20447;-65
2022/08/09 05:46:23;;;;;;;2.22;1.80;;;;;;;;;;5005544;28;20381;-61
2022/08/09 05:48:51;;;;;;;1.95;1.85;;;;;;;;;;5004097;28;20095;-64
2022/08/09 05:51:18;;;;;;;1.90;1.73;;;;;;;;;;4996083;28;20505;-63
2022/08/09 05:53:44;;;;;;;1.85;1.67;;;;;;;;;;5000514;28;20023;-66
2022/08/09 05:56:10;;;;;;;1.95;1.70;;;;;;;;;;5003435;28;20438;-62
2022/08/09 05:58:35;;;;;;;2.47;2.00;;;;;;;;;;4999437;28;20037;-63
2022/08/09 06:01:00;;;;;;;2.13;1.50;;;;;;;;;;5001020;28;20275;-64
2022/08/09 06:03:25;;;;;;;1.87;1.77;;;;;;;;;;4996347;28;20308;-61
2022/08/09 06:05:50;;;;;;;2.57;1.60;;;;;;;;;;5000032;28;20265;-61
2022/08/09 06:08:16;;;;;;;1.77;1.60;;;;;;;;;;4994641;28;20256;-63
2022/08/09 06:10:44;;;;;;;1.85;1.75;;;;;;;;;;4998422;28;20782;-61
2022/08/09 06:13:11;;;;;;;5.00;1.85;;;;;;;;;;5005077;28;20080;-65
2022/08/09 06:15:36;;;;;;;3.08;1.40;;;;;;;;;;4999585;28;20061;-61
2022/08/09 06:18:01;;;;;;;2.13;1.73;;;;;;;;;;5000026;28;20061;-62
2022/08/09 06:20:27;;;;;;;2.13;1.80;;;;;;;;;;5001001;28;20101;-65
2022/08/09 06:22:52;;;;;;;2.13;1.75;;;;;;;;;;4999086;28;20895;-65
2022/08/09 06:25:18;;;;;;;2.20;2.00;;;;;;;;;;4998157;28;20034;-64
2022/08/09 06:27:43;;;;;;;2.45;2.17;;;;;;;;;;4997372;28;20018;-65
2022/08/09 06:30:09;;;;;;;2.50;2.40;;;;;;;;;;5001733;28;20080;-65
2022/08/09 06:32:34;;;;;;;3.80;2.40;;;;;;;;;;4999716;28;20023;-65
2022/08/09 06:35:00;;;;;;;2.33;1.75;;;;;;;;;;5001407;28;20007;-65
2022/08/09 06:37:25;;;;;;;3.40;1.98;;;;;;;;;;5003948;28;20036;-63
2022/08/09 06:39:52;;;;;;;5.37;2.17;;;;;;;;;;4999725;28;20406;-65
2022/08/09 06:42:19;;;;;;;5.13;2.47;;;;;;;;;;5000697;28;20061;-64
2022/08/09 06:44:44;;;;;;;3.75;2.30;;;;;;;;;;5007177;28;20030;-63
2022/08/09 06:47:09;;;;;;;3.78;1.67;;;;;;;;;;5011699;28;20497;-64
2022/08/09 06:49:35;;;;;;;4.80;2.57;;;;;;;;;;5000643;28;20065;-63
2022/08/09 06:52:00;;;;;;;3.57;2.37;;;;;;;;;;5003506;28;20118;-64
2022/08/09 06:54:25;;;;;;;2.20;2.10;;;;;;;;;;5000861;28;20268;-68
2022/08/09 06:56:53;;;;;;;2.55;2.25;;;;;;;;;;4999175;28;20782;-67
2022/08/09 06:59:18;;;;;;;4.30;2.45;;;;;;;;;;4975980;28;20522;-69
2022/08/09 07:01:43;;;;;;;4.30;2.27;;;;;;;;;;5004253;28;20049;-67
2022/08/09 07:04:08;;;;;;;6.10;2.80;;;;;;;;;;5006457;28;20602;-65
2022/08/09 07:06:34;;;;;;;3.95;2.72;;;;;;;;;;5008763;28;20304;-66
2022/08/09 07:09:01;;;;;;;7.80;2.78;;;;;;;;;;5012927;28;20362;-67
2022/08/09 07:11:27;;;;;;;4.40;2.50;;;;;;;;;;5003084;28;20930;-69
2022/08/09 07:13:52;;;;;;;3.78;2.20;;;;;;;;;;5008797;28;20093;-69
2022/08/09 07:16:17;;;;;;;5.27;2.23;;;;;;;;;;5008262;28;20060;-67
2022/08/09 07:18:42;;;;;;;6.70;2.28;;;;;;;;;;5007872;28;20774;-73
2022/08/09 07:21:10;;;;;;;8.35;3.30;;;;;;;;;;5001921;28;20050;-73
2022/08/09 07:23:35;;;;;;;25.05;5.38;;;;;;;;;;5009509;28;20115;-74
2022/08/09 07:26:02;;;;;;;16.48;5.22;;;;;;;;;;5002574;28;20022;-73
2022/08/09 07:28:28;;;;;;;15.40;4.70;;;;;;;;;;5012879;28;20358;-75
2022/08/09 07:30:53;;;;;;;9.60;3.53;;;;;;;;;;5005433;28;20014;-70
2022/08/09 07:33:18;;;;;;;7.33;3.03;;;;;;;;;;5009836;28;20029;-69
2022/08/09 07:35:43;;;;;;;17.10;3.60;;;;;;;;;;5003629;28;20019;-69
2022/08/09 07:38:11;;;;;;;7.80;3.17;;;;;;;;;;5013445;28;20667;-68
2022/08/09 07:40:36;;;;;;;6.68;2.83;;;;;;;;;;5003929;28;20307;-67
2022/08/09 07:43:01;;;;;;;5.70;2.37;;;;;;;;;;5009571;28;20025;-67
2022/08/09 07:45:28;;;;;;;4.40;2.45;;;;;;;;;;5005554;28;20361;-67
2022/08/09 07:47:53;;;;;;;5.38;2.25;;;;;;;;;;5003270;28;20019;-70
2022/08/09 07:50:19;;;;;;;3.88;2.20;;;;;;;;;;5006521;28;20014;-64
2022/08/09 07:52:45;;;;;;;4.80;2.15;;;;;;;;;;5007926;28;20053;-69
2022/08/09 07:55:13;;;;;;;4.80;2.03;;;;;;;;;;5005533;28;20167;-66
2022/08/09 07:57:38;;;;;;;4.20;2.00;;;;;;;;;;5010906;28;20044;-65
2022/08/09 08:00:05;;;;;;;3.42;2.22;;;;;;;;;;5008086;28;20022;-67
2022/08/09 08:02:30;;;;;;;3.50;2.25;;;;;;;;;;5019013;28;20110;-71
2022/08/09 08:04:55;;;;;;;5.00;2.25;;;;;;;;;;5000485;28;20186;-70
2022/08/09 08:07:25;;;;;;;3.90;2.13;;;;;;;;;;5002617;28;20509;-68
2022/08/09 08:09:51;;;;;;;2.95;2.42;;;;;;;;;;5002325;28;20022;-71
2022/08/09 08:12:18;;;;;;;3.97;2.15;;;;;;;;;;5004840;28;20443;-69
2022/08/09 08:14:43;;;;;;;4.85;2.13;;;;;;;;;;5005049;28;20444;-66
2022/08/09 08:17:08;;;;;;;3.03;2.33;;;;;;;;;;5000366;28;20022;-63
2022/08/09 08:19:33;;;;;;;2.47;1.90;;;;;;;;;;5011565;28;20037;-61
2022/08/09 08:21:59;;;;;;;4.32;2.17;;;;;;;;;;5012981;28;20265;-63
2022/08/09 08:24:26;;;;;;;4.57;1.87;;;;;;;;;;5006533;28;20021;-63
2022/08/09 08:26:51;;;;;;;2.53;2.22;;;;;;;;;;5009393;28;20285;-63
2022/08/09 08:29:21;;;;;;;4.30;2.40;;;;;;;;;;5012534;28;20025;-61
2022/08/09 08:31:47;;;;;;;3.65;2.22;;;;;;;;;;5019820;28;20255;-62
2022/08/09 08:34:12;;;;;;;2.80;2.20;;;;;;;;;;5006856;28;20022;-71
2022/08/09 08:36:37;;;;;;;3.08;2.05;;;;;;;;;;5013450;28;20037;-69
2022/08/09 08:39:03;;;;;;;3.10;2.27;;;;;;;;;;5009216;28;20463;-71
2022/08/09 08:41:29;;;;;;;2.75;2.17;;;;;;;;;;5007534;28;20258;-70
2022/08/09 08:43:54;;;;;;;5.32;2.08;;;;;;;;;;5007865;28;20018;-70
2022/08/09 08:46:24;;;;;;;2.67;1.77;;;;;;;;;;5007849;28;20026;-70
2022/08/09 08:48:50;;;;;;;2.03;1.90;;;;;;;;;;5005251;28;20306;-73
2022/08/09 08:51:15;;;;;;;2.28;1.90;;;;;;;;;;5008388;28;20104;-76
2022/08/09 08:53:41;;;;;;;1.75;1.58;;;;;;;;;;5006857;28;20061;-76
2022/08/09 08:56:06;;;;;;;1.55;1.45;;;;;;;;;;5005757;28;20025;-77
2022/08/09 08:58:32;;;;;;;2.70;1.70;;;;;;;;;;5006436;28;20034;-72
2022/08/09 09:00:58;;;;;;;2.70;1.67;;;;;;;;;;5004724;28;20037;-76
2022/08/09 09:03:25;;;;;;;4.07;1.83;;;;;;;;;;5010166;28;20116;-64
2022/08/09 09:05:52;;;;;;;2.67;1.63;;;;;;;;;;4999842;28;20041;-72
2022/08/09 09:08:19;;;;;;;3.03;2.10;;;;;;;;;;5008645;28;20066;-72
2022/08/09 09:10:44;;;;;;;5.13;2.10;;;;;;;;;;5003010;28;20045;-66
2022/08/09 09:13:09;;;;;;;3.00;2.08;;;;;;;;;;5002276;28;20127;-70
2022/08/09 09:15:36;;;;;;;1.95;1.60;;;;;;;;;;5004637;28;20025;-73
2022/08/09 09:18:01;;;;;;;4.00;1.90;;;;;;;;;;4999510;28;20026;-77
2022/08/09 09:20:31;;;;;;;5.50;1.50;;;;;;;;;;5000331;28;20032;-70
2022/08/09 09:22:57;;;;;;;3.72;2.03;;;;;;;;;;5008552;28;20063;-63
2022/08/09 09:25:36;;;;;;;5.00;2.03;;;;;;;;;;5010518;28;20026;-71
2022/08/09 09:28:02;;;;;;;4.15;1.95;;;;;;;;;;5012573;28;20041;-73
2022/08/09 09:30:27;;;;;;;14.45;2.42;;;;;;;;;;5002031;28;20018;-69
2022/08/09 09:33:03;;;;;;;7.00;2.13;;;;;;;;;;5007138;28;20022;-69
2022/08/09 09:35:29;;;;;;;2.88;1.90;;;;;;;;;;5004834;28;20026;-68
2022/08/09 09:37:54;;;;;;;4.57;1.95;;;;;;;;;;5006487;28;20021;-70
2022/08/09 09:40:22;;;;;;;5.63;1.75;;;;;;;;;;5018796;28;20027;-71
2022/08/09 09:42:54;;;;;;;2.15;1.90;;;;;;;;;;5000839;28;20022;-70
2022/08/09 09:45:20;;;;;;;5.55;1.67;;;;;;;;;;5023580;28;20026;-78
2022/08/09 09:47:45;;;;;;;4.15;1.80;;;;;;;;;;5007806;28;20291;-70
2022/08/09 09:50:11;;;;;;;8.95;2.25;;;;;;;;;;5013258;28;20026;-68
2022/08/09 09:52:47;;;;;;;3.75;1.90;;;;;;;;;;5001427;28;20022;-67
2022/08/09 09:55:14;;;;;;;1.92;1.77;;;;;;;;;;5015333;28;20045;-71
2022/08/09 09:57:39;;;;;;;4.88;2.10;;;;;;;;;;4999772;28;20072;-67
2022/08/09 10:00:08;;;;;;;8.70;2.33;;;;;;;;;;5002596;28;20116;-67
2022/08/09 10:02:43;;;;;;;4.03;2.10;;;;;;;;;;5002631;28;20256;-67
2022/08/09 10:05:12;;;;;;;3.75;2.10;;;;;;;;;;4999280;28;20760;-67
2022/08/09 10:07:37;;;;;;;5.88;2.30;;;;;;;;;;5005549;28;20034;-67
2022/08/09 10:10:02;;;;;;;8.07;2.47;;;;;;;;;;5004845;28;20019;-67
2022/08/09 10:12:29;;;;;;;3.30;2.10;;;;;;;;;;4998052;28;20026;-67
2022/08/09 10:15:04;;;;;;;6.45;2.25;;;;;;;;;;5017031;28;20088;-67
2022/08/09 10:17:31;;;;;;;5.38;2.40;;;;;;;;;;4997909;28;20448;-67
2022/08/09 10:19:57;;;;;;;2.33;1.98;;;;;;;;;;4997361;28;20048;-68
2022/08/09 10:22:32;;;;;;;4.57;2.60;;;;;;;;;;4998574;28;20452;-67
2022/08/09 10:24:58;;;;;;;5.60;2.33;;;;;;;;;;5014094;28;20466;-67
2022/08/09 10:27:23;;;;;;;5.50;2.28;;;;;;;;;;5003048;28;20022;-67
2022/08/09 10:29:51;;;;;;;6.25;2.30;;;;;;;;;;4996054;28;20032;-68
2022/08/09 10:32:19;;;;;;;5.68;2.65;;;;;;;;;;4998612;28;20030;-66
2022/08/09 10:34:44;;;;;;;4.93;2.42;;;;;;;;;;5000012;28;20032;-66
2022/08/09 10:37:11;;;;;;;5.47;2.50;;;;;;;;;;5004844;28;20113;-66
2022/08/09 10:39:38;;;;;;;3.38;2.53;;;;;;;;;;4997231;28;20030;-68
2022/08/09 10:42:06;;;;;;;2.33;2.13;;;;;;;;;;4998183;28;20072;-66
2022/08/09 10:44:32;;;;;;;6.65;2.53;;;;;;;;;;5007893;28;20061;-68
2022/08/09 10:46:57;;;;;;;6.53;2.33;;;;;;;;;;5005667;28;20092;-67
2022/08/09 10:49:22;;;;;;;8.50;2.43;;;;;;;;;;5005959;28;20077;-68
2022/08/09 10:52:00;;;;;;;7.50;2.60;;;;;;;;;;5003641;28;20048;-68
2022/08/09 10:54:25;;;;;;;8.98;2.13;;;;;;;;;;4999511;28;20022;-68
2022/08/09 10:57:22;;;;;;;8.57;2.50;;;;;;;;;;4999437;28;20351;-68
2022/08/09 10:59:47;;;;;;;6.45;2.35;;;;;;;;;;4999122;28;20116;-64
2022/08/09 11:02:17;;;;;;;5.75;2.30;;;;;;;;;;5000340;28;20022;-65
2022/08/09 11:04:44;;;;;;;2.25;2.08;;;;;;;;;;4996548;28;20054;-66
2022/08/09 11:07:10;;;;;;;5.63;2.15;;;;;;;;;;4999135;28;20339;-66
2022/08/09 11:09:38;;;;;;;3.30;2.07;;;;;;;;;;5000076;28;20478;-65
2022/08/09 11:12:43;;;;;;;3.95;2.28;;;;;;;;;;5013801;28;20030;-68
2022/08/09 11:15:17;;;;;;;2.50;2.30;;;;;;;;;;4988605;28;20034;-70
2022/08/09 11:17:47;;;;;;;3.13;2.30;;;;;;;;;;4999934;28;20043;-67
2022/08/09 11:20:14;;;;;;;4.47;2.30;;;;;;;;;;4999630;28;20026;-68
2022/08/09 11:22:41;;;;;;;5.03;2.20;;;;;;;;;;4997189;28;20037;-68
2022/08/09 11:25:11;;;;;;;5.70;2.10;;;;;;;;;;4996940;28;20108;-67
2022/08/09 11:27:38;;;;;;;2.80;2.10;;;;;;;;;;5002748;28;20026;-68
2022/08/09 11:30:13;;;;;;;3.58;1.88;;;;;;;;;;5002419;28;20358;-65
2022/08/09 11:32:38;;;;;;;5.28;2.03;;;;;;;;;;4997810;28;20030;-66
2022/08/09 11:35:26;;;;;;;3.20;2.03;;;;;;;;;;4997486;28;20010;-68
2022/08/09 11:37:56;;;;;;;5.70;2.42;;;;;;;;;;4997544;28;20057;-68
2022/08/09 11:40:21;;;;;;;6.13;2.00;;;;;;;;;;4994827;28;20313;-68
2022/08/09 11:42:50;;;;;;;3.23;2.07;;;;;;;;;;4998481;28;20038;-68
2022/08/09 11:45:21;;;;;;;2.40;2.15;;;;;;;;;;4997896;28;20026;-68
2022/08/09 11:47:47;;;;;;;3.92;2.38;;;;;;;;;;5004027;28;20022;-68
2022/08/09 11:50:13;;;;;;;5.82;2.35;;;;;;;;;;5003208;28;20018;-67
2022/08/09 11:52:57;;;;;;;3.90;2.20;;;;;;;;;;5000946;28;20014;-67
2022/08/09 11:55:29;;;;;;;7.55;2.47;;;;;;;;;;5000245;28;20333;-64
2022/08/09 11:57:54;;;;;;;;;;;;;;;;;;5001753;28;20010;-68
2022/08/09 12:00:21;;;;;;;5.28;2.72;;;;;;;;;;5002312;28;19909;-68
2022/08/09 12:02:47;;;;;;;18.00;4.90;;;;;;;;;;5003313;28;20037;-66
2022/08/09 12:05:12;;;;;;;50.15;13.63;;;;;;;;;;5002463;28;20105;-67
2022/08/09 12:07:37;;;;;;;99.65;27.42;;;;;;;;;;5002031;28;20041;-67
2022/08/09 12:10:03;;;;;;;103.27;29.70;;;;;;;;;;5002038;28;20126;-65
2022/08/09 12:12:42;;;;;;;89.55;28.15;;;;;;;;;;5007411;28;20256;-67
2022/08/09 12:15:26;;;;;;;111.13;32.53;;;;;;;;;;4999921;28;20046;-64
2022/08/09 12:17:52;;;;;;;182.45;60.33;;;;;;;;;;5004608;28;20452;-70
2022/08/09 12:20:21;;;;;;;199.75;73.80;;;;;;;;;;4999003;28;20026;-67
2022/08/09 12:22:47;;;;;;;299.48;130.63;;;;;;;;;;5004528;28;20033;-69
2022/08/09 12:25:16;;;;;;;300.77;128.82;;;;;;;;;;5001140;28;20034;-66
2022/08/09 12:27:41;;;;;;;261.80;110.20;;;;;;;;;;4999691;28;20075;-66
2022/08/09 12:30:07;;;;;;;233.25;101.45;;;;;;;;;;5001046;28;20041;-67
2022/08/09 12:32:32;;;;;;;222.32;93.78;;;;;;;;;;5000547;28;20058;-67
2022/08/09 12:34:59;;;;;;;212.25;95.63;;;;;;;;;;5003666;28;20018;-69
2022/08/09 12:37:35;;;;;;;193.63;83.18;;;;;;;;;;5003372;28;20021;-67
2022/08/09 12:40:10;;;;;;;181.00;82.47;;;;;;;;;;5002045;28;20340;-65
2022/08/09 12:42:36;;;;;;;170.85;73.40;;;;;;;;;;4999286;28;20045;-68
2022/08/09 12:45:02;;;;;;;128.88;60.42;;;;;;;;;;4999664;28;20066;-69
2022/08/09 12:47:28;;;;;;;142.88;66.18;;;;;;;;;;5002502;28;20074;-67
2022/08/09 12:52:41;;;;;;;118.70;53.50;;;;;;;;;;5000442;28;20072;-70
2022/08/09 12:55:08;;;;;;;128.75;57.17;;;;;;;;;;5001731;28;20448;-69
2022/08/09 12:57:43;;;;;;;104.10;47.05;;;;;;;;;;5005678;28;20475;-68
2022/08/09 13:00:34;;;;;;;96.80;42.92;;;;;;;;;;5002806;28;20450;-66
2022/08/09 13:03:00;;;;;;;89.93;39.40;;;;;;;;;;5019746;28;20018;-68
2022/08/09 13:05:27;;;;;;;69.97;29.48;;;;;;;;;;5000611;28;20030;-67
2022/08/09 13:08:16;;;;;;;66.15;28.83;;;;;;;;;;4997089;28;20454;-68
2022/08/09 13:10:47;;;;;;;65.18;29.80;;;;;;;;;;4997402;28;20448;-70
2022/08/09 13:13:13;;;;;;;61.78;28.50;;;;;;;;;;5002435;28;20037;-68
2022/08/09 13:15:56;;;;;;;46.13;20.48;;;;;;;;;;5001118;28;20450;-76
2022/08/09 13:18:21;;;;;;;46.28;21.42;;;;;;;;;;5018680;28;20025;-76
2022/08/09 13:20:47;;;;;;;41.47;18.00;;;;;;;;;;5011502;28;20399;-67
2022/08/09 13:23:12;;;;;;;39.03;18.05;;;;;;;;;;5012986;28;20116;-70
2022/08/09 13:25:38;;;;;;;35.63;16.25;;;;;;;;;;5008900;28;20027;-75
2022/08/09 13:28:14;;;;;;;36.65;16.35;;;;;;;;;;5008090;28;20034;-71
2022/08/09 13:30:40;;;;;;;32.05;13.57;;;;;;;;;;5012381;28;20104;-70
2022/08/09 13:33:06;;;;;;;30.45;13.95;;;;;;;;;;5004773;28;20021;-72
2022/08/09 13:35:33;;;;;;;24.95;12.18;;;;;;;;;;5021810;28;20436;-72
2022/08/09 13:37:59;;;;;;;22.63;10.43;;;;;;;;;;5003211;28;20029;-71
2022/08/09 13:40:27;;;;;;;27.80;11.05;;;;;;;;;;5002035;28;20038;-67
2022/08/09 13:42:52;;;;;;;15.18;9.93;;;;;;;;;;5005496;28;20038;-69
2022/08/09 13:45:18;;;;;;;15.93;9.48;;;;;;;;;;5004019;28;20359;-74
2022/08/09 13:47:43;;;;;;;15.57;8.73;;;;;;;;;;5010869;28;20367;-67
2022/08/09 13:50:10;;;;;;;16.02;8.32;;;;;;;;;;5003265;28;20060;-68
2022/08/09 13:52:38;;;;;;;13.18;8.35;;;;;;;;;;5011698;28;20025;-73
2022/08/09 13:55:05;;;;;;;10.02;6.20;;;;;;;;;;5006023;28;20030;-69
2022/08/09 13:57:35;;;;;;;15.65;6.05;;;;;;;;;;5014693;28;20026;-62
2022/08/09 14:00:00;;;;;;;8.13;4.60;;;;;;;;;;4975086;28;20046;-62
2022/08/09 14:02:25;;;;;;;7.20;4.93;;;;;;;;;;4979542;28;20109;-64
2022/08/09 14:11:39;;;;;;;4.35;3.22;;;28.30;66.10;;;;;;5034249;27;20861;-58
2022/08/09 14:14:07;;;;;;;7.47;3.50;;;28.00;65.00;;;;;;5028433;28;20088;-67
2022/08/09 14:16:33;;;;;;;5.03;3.42;;;27.90;66.20;;;;;;5031634;28;20049;-65
2022/08/09 14:19:03;;;;;;;5.32;3.30;;;27.90;67.00;;;;;;5029264;28;20430;-59
2022/08/09 14:21:29;;;;;;;3.83;3.08;;;28.00;64.80;;;;;;5033532;28;20029;-59
2022/08/09 14:23:54;;;;;;;2.65;2.45;;;28.00;62.80;;;;;;5034174;28;20084;-64
2022/08/09 14:26:20;;;;;;;6.07;2.88;;;28.20;62.10;;;;;;5037471;28;20068;-65
2022/08/09 14:28:48;;;;;;;4.90;2.80;;;28.40;61.30;;;;;;5031402;28;20028;-64
2022/08/09 14:31:16;;;;;;;3.22;3.03;;;28.60;60.70;;;;;;5029246;28;20096;-61
2022/08/09 14:33:41;;;;;;;2.67;2.08;;;28.70;60.00;;;;;;5034045;28;20022;-57
2022/08/09 14:36:07;;;;;;;2.95;2.38;;;28.80;59.80;;;;;;5031146;28;20461;-63
2022/08/09 14:38:32;;;;;;;2.40;2.20;;;28.90;59.60;;;;;;5028870;28;20025;-63
2022/08/09 14:40:58;;;;;;;2.83;2.63;;;29.00;59.50;;;;;;5033177;28;20081;-60
2022/08/09 14:43:26;;;;;;;1.85;1.75;;;29.00;59.40;;;;;;5030772;28;20049;-67